createdAt,value
2023-05-15T00:00:00.123Z, 5
2023-05-15T00:02:00.029Z, 5.5
2023-05-15T00:04:00.056Z, 5.5
2023-05-15T00:06:00.039Z, 5.4
2023-05-15T00:07:59.995Z, 5.4
2023-05-15T00:10:00.024Z, 5.3
2023-05-15T00:12:00.066Z, 5.3
2023-05-15T00:14:00.050Z, 5.3
2023-05-15T00:16:00.118Z, 5.2
2023-05-15T00:18:00.212Z, 5.2
2023-05-15T00:20:00.056Z, 5.2
2023-05-15T00:22:00.054Z, 5.2
2023-05-15T00:24:00.142Z, 5.2
2023-05-15T00:26:00.103Z, 5.6
2023-05-15T00:28:00.104Z, 5.6
2023-05-15T00:30:00.135Z, 5.3
2023-05-15T00:32:00.164Z, 5.3
2023-05-15T00:34:00.116Z, 5.3
2023-05-15T00:36:00.107Z, 5.7
2023-05-15T00:38:00.118Z, 5.7
2023-05-15T00:40:00.133Z, 6.3
2023-05-15T00:42:01.966Z, 6.3
2023-05-15T00:44:00.138Z, 6.3
2023-05-15T00:46:00.132Z, 5.6
2023-05-15T00:48:00.183Z, 5.6
2023-05-15T00:50:00.157Z, 6.1
2023-05-15T00:52:00.126Z, 6.1
2023-05-15T00:54:00.181Z, 6.1
2023-05-15T00:56:00.065Z, 6.9
2023-05-15T00:58:00.060Z, 6.9
2023-05-15T01:00:00.061Z, 6.3
2023-05-15T01:02:00.093Z, 6.3
2023-05-15T01:04:00.056Z, 6.3
2023-05-15T01:06:00.055Z, 5.7
2023-05-15T01:08:00.035Z, 5.7
2023-05-15T01:10:00.044Z, 6.8
2023-05-15T01:12:00.142Z, 6.8
2023-05-15T01:14:00.056Z, 6.8
2023-05-15T01:16:00.050Z, 5.8
2023-05-15T01:18:00.160Z, 5.8
2023-05-15T01:20:00.348Z, 7.3
2023-05-15T01:22:00.066Z, 7.3
2023-05-15T01:24:00.145Z, 7.3
2023-05-15T01:26:00.089Z, 7.7
2023-05-15T01:28:00.121Z, 7.7
2023-05-15T01:30:00.134Z, 8
2023-05-15T01:32:00.187Z, 8.1
2023-05-15T01:34:00.097Z, 8.1
2023-05-15T01:36:00.154Z, 8.2
2023-05-15T01:38:00.146Z, 8.2
2023-05-15T01:40:00.140Z, 7.2
2023-05-15T01:42:00.111Z, 7.2
2023-05-15T01:44:00.141Z, 7.2
2023-05-15T01:46:00.167Z, 7.6
2023-05-15T01:48:00.199Z, 7.6
2023-05-15T01:50:00.136Z, 7.2
2023-05-15T01:52:00.109Z, 7.2
2023-05-15T01:54:00.126Z, 7.2
2023-05-15T01:56:00.068Z, 7.5
2023-05-15T01:58:00.061Z, 7.5
2023-05-15T02:00:00.056Z, 5.7
2023-05-15T02:02:00.129Z, 5.7
2023-05-15T02:04:00.189Z, 5.7
2023-05-15T02:06:00.115Z, 6.2
2023-05-15T02:08:00.037Z, 6.2
2023-05-15T02:10:00.063Z, 7
2023-05-15T02:12:00.069Z, 7
2023-05-15T02:14:00.067Z, 7
2023-05-15T02:16:00.117Z, 6
2023-05-15T02:18:00.117Z, 6
2023-05-15T02:20:00.065Z, 5.6
2023-05-15T02:22:00.065Z, 5.6
2023-05-15T02:24:00.113Z, 5.6
2023-05-15T02:26:00.104Z, 6.6
2023-05-15T02:28:00.113Z, 6.6
2023-05-15T02:30:00.156Z, 6.4
2023-05-15T02:32:00.146Z, 6.4
2023-05-15T02:34:00.096Z, 6.4
2023-05-15T02:36:00.133Z, 6.7
2023-05-15T02:38:00.126Z, 6.7
2023-05-15T02:40:00.200Z, 7
2023-05-15T02:42:00.139Z, 7
2023-05-15T02:44:00.099Z, 7
2023-05-15T02:46:00.196Z, 6.4
2023-05-15T02:48:00.131Z, 6.4
2023-05-15T02:50:00.115Z, 6
2023-05-15T02:52:00.135Z, 6
2023-05-15T02:54:00.120Z, 6
2023-05-15T02:56:00.063Z, 5.7
2023-05-15T02:58:00.069Z, 5.7
2023-05-15T03:00:00.053Z, 7.2
2023-05-15T03:02:00.061Z, 7.2
2023-05-15T03:04:00.080Z, 7.2
2023-05-15T03:06:00.060Z, 5.5
2023-05-15T03:08:00.065Z, 5.5
2023-05-15T03:10:00.076Z, 7
2023-05-15T03:12:00.052Z, 7
2023-05-15T03:14:00.065Z, 7
2023-05-15T03:16:00.121Z, 6.1
2023-05-15T03:18:00.110Z, 6.1
2023-05-15T03:20:00.058Z, 6.6
2023-05-15T03:22:00.034Z, 6.6
2023-05-15T03:24:00.124Z, 6.6
2023-05-15T03:26:00.166Z, 8.5
2023-05-15T03:28:00.121Z, 8.5
2023-05-15T03:30:00.145Z, 9
2023-05-15T03:32:00.125Z, 9
2023-05-15T03:34:00.130Z, 8.7
2023-05-15T03:36:00.173Z, 8.4
2023-05-15T03:38:00.151Z, 8.4
2023-05-15T03:40:00.164Z, 8.4
2023-05-15T03:42:00.112Z, 8.4
2023-05-15T03:44:00.178Z, 7.7
2023-05-15T03:46:00.138Z, 7.7
2023-05-15T03:48:00.155Z, 7.7
2023-05-15T03:50:00.162Z, 6.6
2023-05-15T03:52:00.122Z, 6.6
2023-05-15T03:54:00.069Z, 7.9
2023-05-15T03:56:00.063Z, 7.9
2023-05-15T03:58:00.060Z, 7.9
2023-05-15T04:00:00.083Z, 6.5
2023-05-15T04:02:04.854Z, 6.5
2023-05-15T04:04:00.055Z, 7.6
2023-05-15T04:06:00.059Z, 7.6
2023-05-15T04:08:00.066Z, 7.6
2023-05-15T04:10:00.053Z, 6.8
2023-05-15T04:12:00.049Z, 6.8
2023-05-15T04:14:00.052Z, 7.2
2023-05-15T04:16:00.087Z, 7.2
2023-05-15T04:18:00.178Z, 7.2
2023-05-15T04:20:00.055Z, 8.4
2023-05-15T04:22:00.026Z, 8.4
2023-05-15T04:24:00.128Z, 7.5
2023-05-15T04:26:00.108Z, 7.5
2023-05-15T04:28:00.138Z, 7.5
2023-05-15T04:30:00.171Z, 6.9
2023-05-15T04:32:00.152Z, 6.9
2023-05-15T04:34:00.147Z, 7.3
2023-05-15T04:36:00.159Z, 7.3
2023-05-15T04:38:00.113Z, 7.3
2023-05-15T04:40:00.209Z, 8.1
2023-05-15T04:42:00.171Z, 8.1
2023-05-15T04:44:00.117Z, 7.2
2023-05-15T04:46:00.222Z, 7.2
2023-05-15T04:48:00.178Z, 7.2
2023-05-15T04:50:00.200Z, 7.7
2023-05-15T04:52:00.137Z, 7.7
2023-05-15T04:54:00.067Z, 7
2023-05-15T04:56:00.043Z, 7
2023-05-15T04:58:00.056Z, 7
2023-05-15T05:00:00.056Z, 7.6
2023-05-15T05:02:00.085Z, 7.6
2023-05-15T05:04:00.133Z, 7.5
2023-05-15T05:06:00.061Z, 7.5
2023-05-15T05:08:00.053Z, 7.5
2023-05-15T05:10:00.055Z, 8.4
2023-05-15T05:12:00.057Z, 8.4
2023-05-15T05:14:00.059Z, 8
2023-05-15T05:16:00.118Z, 8
2023-05-15T05:18:00.265Z, 8
2023-05-15T05:20:00.059Z, 10.2
2023-05-15T05:22:00.046Z, 10.2
2023-05-15T05:24:00.127Z, 15.8
2023-05-15T05:26:00.123Z, 15.8
2023-05-15T05:28:00.150Z, 15.8
2023-05-15T05:30:00.186Z, 17.7
2023-05-15T05:32:00.496Z, 17.7
2023-05-15T05:34:00.142Z, 18.6
2023-05-15T05:36:00.136Z, 18.6
2023-05-15T05:38:00.168Z, 18.6
2023-05-15T05:40:00.144Z, 16.9
2023-05-15T05:42:00.158Z, 16.9
2023-05-15T05:44:00.099Z, 16.4
2023-05-15T05:46:00.105Z, 16.4
2023-05-15T05:48:00.303Z, 16.4
2023-05-15T05:50:00.141Z, 24.5
2023-05-15T05:52:00.144Z, 24.5
2023-05-15T05:54:00.117Z, 34.3
2023-05-15T05:56:00.061Z, 34.3
2023-05-15T05:58:00.050Z, 34.3
2023-05-15T06:00:00.036Z, 35.1
2023-05-15T06:02:00.081Z, 35.1
2023-05-15T06:04:00.136Z, 37.8
2023-05-15T06:06:00.124Z, 37.8
2023-05-15T06:08:00.053Z, 37.8
2023-05-15T06:10:00.060Z, 40.6
2023-05-15T06:12:00.058Z, 40.6
2023-05-15T06:14:00.095Z, 39.9
2023-05-15T06:16:00.060Z, 39.9
2023-05-15T06:18:00.135Z, 39.9
2023-05-15T06:20:00.086Z, 40.8
2023-05-15T06:22:00.048Z, 40.8
2023-05-15T06:24:00.131Z, 44
2023-05-15T06:26:00.114Z, 44
2023-05-15T06:28:00.143Z, 44
2023-05-15T06:30:00.146Z, 41.6
2023-05-15T06:32:00.170Z, 41.6
2023-05-15T06:34:00.131Z, 41.5
2023-05-15T06:36:00.151Z, 41.5
2023-05-15T06:38:00.167Z, 41.5
2023-05-15T06:40:00.203Z, 41.6
2023-05-15T06:42:00.147Z, 41.6
2023-05-15T06:44:00.113Z, 41.4
2023-05-15T06:46:00.316Z, 41.4
2023-05-15T06:48:01.877Z, 41.4
2023-05-15T06:50:00.135Z, 42.7
2023-05-15T06:52:00.102Z, 42.7
2023-05-15T06:54:00.146Z, 42.9
2023-05-15T06:56:00.061Z, 42.9
2023-05-15T06:58:00.068Z, 42.9
2023-05-15T07:00:00.155Z, 39.1
2023-05-15T07:02:00.177Z, 39.1
2023-05-15T07:04:00.063Z, 37
2023-05-15T07:06:00.093Z, 37
2023-05-15T07:08:00.075Z, 39.7
2023-05-15T07:10:00.068Z, 40.6
2023-05-15T07:12:00.079Z, 40.6
2023-05-15T07:14:00.072Z, 38.3
2023-05-15T07:16:00.059Z, 38.3
2023-05-15T07:18:00.213Z, 39.3
2023-05-15T07:20:00.053Z, 39.3
2023-05-15T07:22:02.471Z, 39.3
2023-05-15T07:24:00.107Z, 39
2023-05-15T07:26:00.104Z, 39
2023-05-15T07:28:00.104Z, 39
2023-05-15T07:30:00.185Z, 39
2023-05-15T07:32:00.257Z, 39
2023-05-15T07:34:00.114Z, 35.5
2023-05-15T07:36:00.134Z, 35.5
2023-05-15T07:38:00.194Z, 41.4
2023-05-15T07:40:00.253Z, 41.4
2023-05-15T07:42:00.148Z, 41.4
2023-05-15T07:44:00.130Z, 37.2
2023-05-15T07:46:00.263Z, 37.2
2023-05-15T07:48:00.187Z, 37
2023-05-15T07:50:00.173Z, 37
2023-05-15T07:52:00.145Z, 37
2023-05-15T07:54:00.061Z, 36.2
2023-05-15T07:56:00.051Z, 36.2
2023-05-15T07:58:00.048Z, 37.1
2023-05-15T08:00:00.043Z, 37.1
2023-05-15T08:02:00.128Z, 37.1
2023-05-15T08:04:00.068Z, 37.6
2023-05-15T08:06:00.015Z, 37.6
2023-05-15T08:07:59.952Z, 35
2023-05-15T08:09:59.980Z, 35
2023-05-15T08:12:00.054Z, 35
2023-05-15T08:14:00.102Z, 35.6
2023-05-15T08:16:00.085Z, 35.6
2023-05-15T08:18:00.178Z, 34.6
2023-05-15T08:20:00.064Z, 34.6
2023-05-15T08:22:00.072Z, 34.6
2023-05-15T08:24:00.131Z, 33.7
2023-05-15T08:26:00.117Z, 33.7
2023-05-15T08:28:00.077Z, 33.2
2023-05-15T08:30:00.167Z, 33.2
2023-05-15T08:32:00.085Z, 33.2
2023-05-15T08:34:00.167Z, 35.4
2023-05-15T08:36:00.169Z, 35.4
2023-05-15T08:38:00.122Z, 37.3
2023-05-15T08:40:00.131Z, 37.3
2023-05-15T08:42:00.109Z, 37.3
2023-05-15T08:44:00.133Z, 37
2023-05-15T08:46:00.136Z, 37
2023-05-15T08:48:00.221Z, 36.7
2023-05-15T08:50:00.140Z, 36.7
2023-05-15T08:52:00.123Z, 36.7
2023-05-15T08:54:00.070Z, 39.1
2023-05-15T08:56:00.093Z, 39.1
2023-05-15T08:58:00.070Z, 39.9
2023-05-15T09:00:00.086Z, 39.9
2023-05-15T09:02:00.102Z, 39.9
2023-05-15T09:04:00.106Z, 41.7
2023-05-15T09:06:00.064Z, 41.7
2023-05-15T09:08:00.046Z, 40.3
2023-05-15T09:10:00.039Z, 40.3
2023-05-15T09:12:00.081Z, 40.3
2023-05-15T09:14:00.065Z, 40.7
2023-05-15T09:16:00.056Z, 40.7
2023-05-15T09:18:00.116Z, 38.9
2023-05-15T09:20:00.039Z, 38.9
2023-05-15T09:22:00.040Z, 38.9
2023-05-15T09:24:00.164Z, 34.3
2023-05-15T09:26:00.114Z, 34.3
2023-05-15T09:28:00.129Z, 37.3
2023-05-15T09:30:00.176Z, 37.3
2023-05-15T09:32:00.178Z, 37.3
2023-05-15T09:34:00.105Z, 37.2
2023-05-15T09:36:00.137Z, 37.2
2023-05-15T09:38:00.124Z, 39.4
2023-05-15T09:40:00.186Z, 39.4
2023-05-15T09:42:00.115Z, 39.4
2023-05-15T09:44:00.125Z, 38.9
2023-05-15T09:46:00.184Z, 38.9
2023-05-15T09:48:00.492Z, 39.3
2023-05-15T09:50:00.137Z, 39.3
2023-05-15T09:52:00.127Z, 39.3
2023-05-15T09:54:00.093Z, 36
2023-05-15T09:56:00.058Z, 36
2023-05-15T09:58:00.083Z, 35.2
2023-05-15T10:00:00.088Z, 35.2
2023-05-15T10:02:00.163Z, 35.2
2023-05-15T10:04:00.077Z, 39.1
2023-05-15T10:06:00.189Z, 39.1
2023-05-15T10:08:00.035Z, 37.5
2023-05-15T10:10:00.070Z, 37.5
2023-05-15T10:12:00.092Z, 37.5
2023-05-15T10:14:00.075Z, 39.2
2023-05-15T10:16:00.093Z, 39.2
2023-05-15T10:18:00.185Z, 36.3
2023-05-15T10:20:00.069Z, 36.3
2023-05-15T10:22:00.066Z, 36.3
2023-05-15T10:24:00.110Z, 36.1
2023-05-15T10:26:00.094Z, 36.1
2023-05-15T10:28:00.084Z, 34.8
2023-05-15T10:30:00.149Z, 34.8
2023-05-15T10:32:00.096Z, 34.8
2023-05-15T10:34:00.137Z, 33.6
2023-05-15T10:36:00.156Z, 33.6
2023-05-15T10:38:00.134Z, 35.2
2023-05-15T10:40:00.117Z, 35.2
2023-05-15T10:42:00.151Z, 35.2
2023-05-15T10:44:00.103Z, 34
2023-05-15T10:46:00.117Z, 34
2023-05-15T10:48:00.179Z, 34.6
2023-05-15T10:50:00.160Z, 34.6
2023-05-15T10:52:00.102Z, 34.6
2023-05-15T10:54:00.128Z, 37.5
2023-05-15T10:56:00.216Z, 37.5
2023-05-15T10:58:00.087Z, 39.1
2023-05-15T11:00:00.081Z, 39.1
2023-05-15T11:02:00.056Z, 39.1
2023-05-15T11:04:00.111Z, 40.3
2023-05-15T11:06:00.074Z, 40.3
2023-05-15T11:08:00.043Z, 35.2
2023-05-15T11:10:00.060Z, 35.2
2023-05-15T11:12:00.081Z, 35.2
2023-05-15T11:14:00.066Z, 37
2023-05-15T11:16:00.061Z, 37
2023-05-15T11:18:00.133Z, 40.3
2023-05-15T11:20:00.063Z, 40.3
2023-05-15T11:22:00.054Z, 40.3
2023-05-15T11:24:00.141Z, 36.1
2023-05-15T11:26:00.113Z, 36.1
2023-05-15T11:28:00.114Z, 40.3
2023-05-15T11:30:00.185Z, 40.3
2023-05-15T11:32:00.125Z, 40.3
2023-05-15T11:34:00.107Z, 36.8
2023-05-15T11:36:00.174Z, 36.8
2023-05-15T11:38:00.147Z, 36.8
2023-05-15T11:40:00.167Z, 36.8
2023-05-15T11:42:01.024Z, 36.8
2023-05-15T11:44:00.131Z, 36.5
2023-05-15T11:46:00.207Z, 36.5
2023-05-15T11:48:00.235Z, 35.1
2023-05-15T11:50:00.124Z, 35.1
2023-05-15T11:52:00.126Z, 35.6
2023-05-15T11:54:00.104Z, 36.1
2023-05-15T11:56:00.068Z, 36.1
2023-05-15T11:58:00.094Z, 34.1
2023-05-15T12:00:00.057Z, 34.1
2023-05-15T12:02:00.095Z, 33.1
2023-05-15T12:04:00.392Z, 33.1
2023-05-15T12:06:00.503Z, 33.1
2023-05-15T12:08:00.048Z, 31
2023-05-15T12:10:00.078Z, 31
2023-05-15T12:12:00.067Z, 30.9
2023-05-15T12:14:00.055Z, 30.9
2023-05-15T12:16:00.117Z, 30.9
2023-05-15T12:18:00.232Z, 32.3
2023-05-15T12:20:00.079Z, 32.3
2023-05-15T12:22:00.058Z, 29.3
2023-05-15T12:24:07.571Z, 29.3
2023-05-15T12:26:00.108Z, 29.3
2023-05-15T12:28:00.146Z, 29.6
2023-05-15T12:30:00.166Z, 29.6
2023-05-15T12:32:00.213Z, 28.9
2023-05-15T12:34:00.131Z, 28.9
2023-05-15T12:36:01.854Z, 28.9
2023-05-15T12:38:00.139Z, 27.1
2023-05-15T12:40:00.190Z, 27.1
2023-05-15T12:42:00.163Z, 28.7
2023-05-15T12:44:00.139Z, 28.7
2023-05-15T12:46:00.138Z, 28.7
2023-05-15T12:48:00.150Z, 25
2023-05-15T12:50:00.164Z, 25
2023-05-15T12:52:00.104Z, 19.7
2023-05-15T12:54:00.084Z, 19.7
2023-05-15T12:56:00.074Z, 19.7
2023-05-15T12:58:00.078Z, 21
2023-05-15T13:00:00.079Z, 21
2023-05-15T13:02:00.056Z, 23.4
2023-05-15T13:04:00.271Z, 23.4
2023-05-15T13:06:00.055Z, 23.4
2023-05-15T13:08:00.108Z, 23.1
2023-05-15T13:10:00.057Z, 23.1
2023-05-15T13:12:00.055Z, 17.9
2023-05-15T13:14:00.053Z, 17.9
2023-05-15T13:16:00.126Z, 17.9
2023-05-15T13:18:00.102Z, 18.7
2023-05-15T13:20:00.057Z, 18.7
2023-05-15T13:22:00.041Z, 20.1
2023-05-15T13:24:00.137Z, 20.1
2023-05-15T13:26:00.128Z, 20.1
2023-05-15T13:28:00.107Z, 20.1
2023-05-15T13:30:00.138Z, 20.1
2023-05-15T13:32:00.126Z, 17
2023-05-15T13:34:00.112Z, 17
2023-05-15T13:36:00.134Z, 17
2023-05-15T13:38:00.132Z, 17.2
2023-05-15T13:40:00.171Z, 17.2
2023-05-15T13:42:00.118Z, 16.8
2023-05-15T13:44:00.185Z, 16.8
2023-05-15T13:46:00.144Z, 16.8
2023-05-15T13:48:00.235Z, 15.5
2023-05-15T13:50:00.175Z, 15.5
2023-05-15T13:52:00.141Z, 18.1
2023-05-15T13:54:00.112Z, 18.1
2023-05-15T13:56:00.127Z, 18.1
2023-05-15T13:58:00.071Z, 12.6
2023-05-15T14:00:00.183Z, 12.6
2023-05-15T14:02:00.070Z, 11.2
2023-05-15T14:04:00.102Z, 11.2
2023-05-15T14:06:00.057Z, 11.2
2023-05-15T14:08:00.066Z, 13.6
2023-05-15T14:10:00.058Z, 13.6
2023-05-15T14:12:00.078Z, 12.1
2023-05-15T14:14:00.056Z, 12.1
2023-05-15T14:16:00.064Z, 12.1
2023-05-15T14:18:00.089Z, 13.1
2023-05-15T14:20:00.056Z, 13.1
2023-05-15T14:22:00.055Z, 13
2023-05-15T14:24:00.121Z, 13
2023-05-15T14:26:00.154Z, 13
2023-05-15T14:28:00.108Z, 14.3
2023-05-15T14:30:00.142Z, 14.3
2023-05-15T14:32:00.218Z, 11.7
2023-05-15T14:34:00.123Z, 11.7
2023-05-15T14:36:00.148Z, 11.7
2023-05-15T14:38:00.149Z, 11.4
2023-05-15T14:40:00.167Z, 11.4
2023-05-15T14:42:00.136Z, 14.9
2023-05-15T14:44:00.135Z, 14.9
2023-05-15T14:46:00.166Z, 14.9
2023-05-15T14:48:00.185Z, 14.6
2023-05-15T14:50:00.121Z, 14.6
2023-05-15T14:52:00.100Z, 15.3
2023-05-15T14:54:00.062Z, 15.3
2023-05-15T14:56:00.069Z, 15.3
2023-05-15T14:58:00.046Z, 14.4
2023-05-15T15:00:00.055Z, 14.4
2023-05-15T15:02:00.238Z, 13.6
2023-05-15T15:04:00.288Z, 13.6
2023-05-15T15:06:00.044Z, 13.6
2023-05-15T15:08:00.032Z, 14.3
2023-05-15T15:10:00.053Z, 14.3
2023-05-15T15:12:00.059Z, 14.6
2023-05-15T15:14:00.057Z, 14.6
2023-05-15T15:16:00.096Z, 14.6
2023-05-15T15:18:00.075Z, 14.6
2023-05-15T15:20:00.058Z, 14.6
2023-05-15T15:22:00.095Z, 16
2023-05-15T15:24:00.132Z, 16
2023-05-15T15:26:00.116Z, 16
2023-05-15T15:28:00.128Z, 15
2023-05-15T15:30:00.158Z, 15
2023-05-15T15:32:00.195Z, 15.8
2023-05-15T15:34:00.350Z, 15.8
2023-05-15T15:36:00.112Z, 15.8
2023-05-15T15:38:00.126Z, 11.3
2023-05-15T15:40:00.203Z, 11.3
2023-05-15T15:42:00.117Z, 10.1
2023-05-15T15:44:00.144Z, 10.1
2023-05-15T15:46:00.169Z, 10.1
2023-05-15T15:48:00.268Z, 9.8
2023-05-15T15:50:00.163Z, 9.8
2023-05-15T15:52:00.140Z, 7.9
2023-05-15T15:54:00.093Z, 7.9
2023-05-15T15:56:00.049Z, 7.9
2023-05-15T15:58:00.045Z, 7.8
2023-05-15T16:00:00.049Z, 7.8
2023-05-15T16:02:00.029Z, 7.3
2023-05-15T16:04:00.082Z, 7.3
2023-05-15T16:06:00.408Z, 7.3
2023-05-15T16:07:59.974Z, 9.1
2023-05-15T16:10:11.941Z, 9.1
2023-05-15T16:12:00.019Z, 8.5
2023-05-15T16:14:00.014Z, 8.5
2023-05-15T16:15:59.998Z, 8.5
2023-05-15T16:18:00.076Z, 9.2
2023-05-15T16:20:00.005Z, 9.2
2023-05-15T16:21:59.982Z, 7.4
2023-05-15T16:24:00.124Z, 7.4
2023-05-15T16:26:00.135Z, 7.4
2023-05-15T16:28:00.117Z, 7.4
2023-05-15T16:30:00.314Z, 7.4
2023-05-15T16:32:00.193Z, 8
2023-05-15T16:34:02.799Z, 8
2023-05-15T16:36:00.136Z, 8
2023-05-15T16:38:00.162Z, 8.2
2023-05-15T16:40:00.295Z, 8.2
2023-05-15T16:42:00.140Z, 7.2
2023-05-15T16:44:00.134Z, 7.2
2023-05-15T16:46:00.174Z, 7.2
2023-05-15T16:48:00.289Z, 7
2023-05-15T16:50:00.159Z, 7
2023-05-15T16:52:00.164Z, 7.2
2023-05-15T16:54:00.097Z, 7.2
2023-05-15T16:56:00.079Z, 7.2
2023-05-15T16:58:00.092Z, 6.1
2023-05-15T17:00:00.087Z, 6.1
2023-05-15T17:02:00.061Z, 6.9
2023-05-15T17:04:00.071Z, 6.9
2023-05-15T17:06:00.016Z, 6.9
2023-05-15T17:07:59.989Z, 7.2
2023-05-15T17:10:00.051Z, 7.2
2023-05-15T17:12:00.053Z, 7.5
2023-05-15T17:14:00.066Z, 7.5
2023-05-15T17:16:00.073Z, 7.5
2023-05-15T17:18:00.172Z, 7.6
2023-05-15T17:20:01.117Z, 7.6
2023-05-15T17:22:00.069Z, 6.7
2023-05-15T17:24:00.112Z, 6.7
2023-05-15T17:26:00.097Z, 6.7
2023-05-15T17:28:00.112Z, 7.4
2023-05-15T17:30:00.182Z, 7.4
2023-05-15T17:32:00.135Z, 7.3
2023-05-15T17:34:00.141Z, 7.3
2023-05-15T17:36:00.144Z, 7.3
2023-05-15T17:38:00.125Z, 7.9
2023-05-15T17:40:00.120Z, 7.9
2023-05-15T17:42:00.142Z, 7.7
2023-05-15T17:44:00.143Z, 7.7
2023-05-15T17:46:00.140Z, 7.7
2023-05-15T17:48:00.288Z, 8.2
2023-05-15T17:50:00.151Z, 8.2
2023-05-15T17:52:00.136Z, 8
2023-05-15T17:54:00.121Z, 8
2023-05-15T17:56:00.068Z, 8.1
2023-05-15T17:58:00.057Z, 8.6
2023-05-15T18:00:00.072Z, 8.6
2023-05-15T18:02:00.095Z, 9.2
2023-05-15T18:04:00.115Z, 9.2
2023-05-15T18:06:00.073Z, 12.1
2023-05-15T18:08:00.084Z, 13.1
2023-05-15T18:10:00.067Z, 13.1
2023-05-15T18:12:00.044Z, 18
2023-05-15T18:14:00.029Z, 18
2023-05-15T18:16:00.071Z, 16.5
2023-05-15T18:18:00.055Z, 16.5
2023-05-15T18:20:00.008Z, 16.5
2023-05-15T18:21:59.981Z, 17.7
2023-05-15T18:24:00.096Z, 17.7
2023-05-15T18:26:00.140Z, 18.9
2023-05-15T18:28:00.108Z, 18.9
2023-05-15T18:30:00.145Z, 18.9
2023-05-15T18:32:00.183Z, 19.3
2023-05-15T18:34:00.187Z, 19.3
2023-05-15T18:36:00.125Z, 18.2
2023-05-15T18:38:00.144Z, 18.2
2023-05-15T18:40:00.148Z, 18.2
2023-05-15T18:42:00.168Z, 17.7
2023-05-15T18:44:00.112Z, 17.7
2023-05-15T18:46:00.135Z, 16.7
2023-05-15T18:48:00.155Z, 16.7
2023-05-15T18:50:00.156Z, 16.7
2023-05-15T18:52:00.159Z, 17.3
2023-05-15T18:54:00.085Z, 17.3
2023-05-15T18:56:00.081Z, 18.6
2023-05-15T18:58:00.081Z, 18.6
2023-05-15T19:00:00.095Z, 18.6
2023-05-15T19:02:00.163Z, 18.9
2023-05-15T19:04:00.052Z, 18.9
2023-05-15T19:06:00.055Z, 18.2
2023-05-15T19:08:00.028Z, 18.2
2023-05-15T19:10:00.053Z, 18.2
2023-05-15T19:12:00.084Z, 19.5
2023-05-15T19:14:00.089Z, 19.5
2023-05-15T19:16:00.053Z, 18.3
2023-05-15T19:18:00.148Z, 18.3
2023-05-15T19:20:00.068Z, 18.3
2023-05-15T19:22:00.060Z, 18.8
2023-05-15T19:24:00.113Z, 18.8
2023-05-15T19:26:00.097Z, 16.4
2023-05-15T19:28:00.114Z, 16.4
2023-05-15T19:30:00.208Z, 16.4
2023-05-15T19:32:00.130Z, 16.5
2023-05-15T19:34:00.281Z, 16.5
2023-05-15T19:36:00.142Z, 18.6
2023-05-15T19:38:00.138Z, 18.6
2023-05-15T19:40:00.132Z, 18.6
2023-05-15T19:42:00.139Z, 15.6
2023-05-15T19:44:00.097Z, 15.6
2023-05-15T19:46:00.185Z, 15
2023-05-15T19:48:00.232Z, 15
2023-05-15T19:50:00.116Z, 15
2023-05-15T19:52:00.118Z, 16.2
2023-05-15T19:54:00.069Z, 16.2
2023-05-15T19:56:00.090Z, 16.6
2023-05-15T19:58:00.058Z, 16.6
2023-05-15T20:00:00.171Z, 16.6
2023-05-15T20:02:00.231Z, 18.2
2023-05-15T20:04:00.255Z, 18.2
2023-05-15T20:06:00.061Z, 17
2023-05-15T20:08:00.042Z, 17
2023-05-15T20:10:00.045Z, 17
2023-05-15T20:12:00.059Z, 18.9
2023-05-15T20:14:00.045Z, 18.9
2023-05-15T20:16:00.184Z, 20
2023-05-15T20:18:00.115Z, 20
2023-05-15T20:20:00.080Z, 20
2023-05-15T20:22:00.057Z, 20.8
2023-05-15T20:24:00.163Z, 20.8
2023-05-15T20:26:00.124Z, 20.6
2023-05-15T20:28:00.130Z, 20.6
2023-05-15T20:30:00.192Z, 20.6
2023-05-15T20:32:00.166Z, 22.2
2023-05-15T20:34:00.115Z, 22.2
2023-05-15T20:36:00.383Z, 22.1
2023-05-15T20:38:00.199Z, 22.1
2023-05-15T20:40:00.275Z, 22.1
2023-05-15T20:42:00.147Z, 23.4
2023-05-15T20:44:00.149Z, 23.4
2023-05-15T20:46:00.198Z, 22.8
2023-05-15T20:48:00.168Z, 22.8
2023-05-15T20:50:00.159Z, 22.8
2023-05-15T20:52:00.122Z, 25.4
2023-05-15T20:54:00.154Z, 25.4
2023-05-15T20:56:00.052Z, 24.5
2023-05-15T20:58:00.083Z, 24.5
2023-05-15T21:00:00.087Z, 24.5
2023-05-15T21:02:00.059Z, 23.2
2023-05-15T21:04:00.322Z, 23.2
2023-05-15T21:06:00.062Z, 25.1
2023-05-15T21:08:00.064Z, 25.1
2023-05-15T21:10:00.073Z, 25.1
2023-05-15T21:12:00.137Z, 25.4
2023-05-15T21:14:00.064Z, 25.4
2023-05-15T21:16:00.067Z, 25.9
2023-05-15T21:18:00.095Z, 25.9
2023-05-15T21:20:00.088Z, 25.9
2023-05-15T21:22:00.027Z, 25.7
2023-05-15T21:24:00.126Z, 25.7
2023-05-15T21:26:00.134Z, 26.1
2023-05-15T21:28:00.130Z, 26.1
2023-05-15T21:30:00.169Z, 26.1
2023-05-15T21:32:00.138Z, 26.5
2023-05-15T21:34:00.125Z, 26.5
2023-05-15T21:36:00.159Z, 27.1
2023-05-15T21:38:00.165Z, 27.1
2023-05-15T21:40:00.192Z, 27.1
2023-05-15T21:42:00.159Z, 27.7
2023-05-15T21:44:00.176Z, 27.7
2023-05-15T21:46:00.152Z, 30.7
2023-05-15T21:48:00.231Z, 30.7
2023-05-15T21:50:00.129Z, 30.7
2023-05-15T21:52:00.143Z, 30.8
2023-05-15T21:54:00.096Z, 30.8
2023-05-15T21:56:00.100Z, 31.3
2023-05-15T21:58:00.111Z, 31.3
2023-05-15T22:00:00.186Z, 31.3
2023-05-15T22:02:00.168Z, 34.2
2023-05-15T22:04:00.078Z, 34.2
2023-05-15T22:06:00.053Z, 39.3
2023-05-15T22:08:00.037Z, 39.3
2023-05-15T22:10:00.055Z, 39.3
2023-05-15T22:12:00.050Z, 39.6
2023-05-15T22:14:00.094Z, 39.6
2023-05-15T22:16:00.259Z, 42.5
2023-05-15T22:18:00.140Z, 42.5
2023-05-15T22:20:00.110Z, 43.1
2023-05-15T22:22:00.112Z, 43.8
2023-05-15T22:24:00.118Z, 43.8
2023-05-15T22:26:00.088Z, 43.4
2023-05-15T22:28:00.106Z, 43.4
2023-05-15T22:30:00.139Z, 45.9
2023-05-15T22:32:00.142Z, 45.9
2023-05-15T22:34:00.100Z, 45.9
2023-05-15T22:36:00.115Z, 46.6
2023-05-15T22:38:00.104Z, 46.6
2023-05-15T22:40:00.128Z, 47.6
2023-05-15T22:42:00.134Z, 47.6
2023-05-15T22:44:00.088Z, 47.6
2023-05-15T22:46:00.150Z, 49.2
2023-05-15T22:48:00.208Z, 49.2
2023-05-15T22:50:00.124Z, 47.2
2023-05-15T22:52:00.127Z, 47.2
2023-05-15T22:54:00.099Z, 47.2
2023-05-15T22:56:00.094Z, 48.2
2023-05-15T22:58:00.055Z, 48.2
2023-05-15T23:00:00.108Z, 48.9
2023-05-15T23:02:00.087Z, 48.9
2023-05-15T23:04:00.146Z, 48.9
2023-05-15T23:06:00.114Z, 50.1
2023-05-15T23:08:00.050Z, 50.1
2023-05-15T23:10:00.076Z, 46.7
2023-05-15T23:12:00.070Z, 46.7
2023-05-15T23:14:00.059Z, 46.7
2023-05-15T23:16:00.193Z, 47
2023-05-15T23:18:00.205Z, 47
2023-05-15T23:20:00.108Z, 47.2
2023-05-15T23:22:00.048Z, 47.2
2023-05-15T23:24:00.155Z, 47.2
2023-05-15T23:26:00.112Z, 46
2023-05-15T23:28:00.110Z, 46
2023-05-15T23:30:00.161Z, 45.7
2023-05-15T23:32:00.149Z, 45.7
2023-05-15T23:34:00.131Z, 45.7
2023-05-15T23:36:00.153Z, 45.1
2023-05-15T23:38:00.135Z, 45.1
2023-05-15T23:40:00.139Z, 42.3
2023-05-15T23:42:00.225Z, 42.3
2023-05-15T23:44:00.135Z, 42.3
2023-05-15T23:46:00.137Z, 38.5
2023-05-15T23:48:00.287Z, 38.5
2023-05-15T23:50:00.173Z, 38.5
2023-05-15T23:52:00.114Z, 38.5
2023-05-15T23:54:00.119Z, 38.5
2023-05-15T23:56:00.096Z, 36.4
2023-05-15T23:58:00.129Z, 36.4
